sensor_id;sensor_type;location;lat;lon;timestamp;temperature;humidity
12682;DHT22;6405;59.208;18.216;2023-10-08T00:00:04;4.30;99.90
12682;DHT22;6405;59.208;18.216;2023-10-08T00:02:50;4.20;99.90
12682;DHT22;6405;59.208;18.216;2023-10-08T00:05:16;4.10;99.90
12682;DHT22;6405;59.208;18.216;2023-10-08T00:07:42;4.10;99.90
12682;DHT22;6405;59.208;18.216;2023-10-08T00:10:09;4.10;99.90
12682;DHT22;6405;59.208;18.216;2023-10-08T00:12:34;4.10;99.90
12682;DHT22;6405;59.208;18.216;2023-10-08T00:15:00;4.10;99.90
12682;DHT22;6405;59.208;18.216;2023-10-08T00:17:26;4.10;99.90
12682;DHT22;6405;59.208;18.216;2023-10-08T00:19:52;4.00;99.90
12682;DHT22;6405;59.208;18.216;2023-10-08T00:22:18;4.00;99.90
12682;DHT22;6405;59.208;18.216;2023-10-08T00:24:45;4.00;99.90
12682;DHT22;6405;59.208;18.216;2023-10-08T00:27:15;4.00;99.90
12682;DHT22;6405;59.208;18.216;2023-10-08T00:29:41;4.00;99.90
12682;DHT22;6405;59.208;18.216;2023-10-08T00:32:09;3.90;99.90
12682;DHT22;6405;59.208;18.216;2023-10-08T00:34:44;4.00;99.90
12682;DHT22;6405;59.208;18.216;2023-10-08T00:37:10;4.00;99.90
12682;DHT22;6405;59.208;18.216;2023-10-08T00:39:40;3.90;99.90
12682;DHT22;6405;59.208;18.216;2023-10-08T00:42:06;3.90;99.90
12682;DHT22;6405;59.208;18.216;2023-10-08T00:44:36;3.90;99.90
12682;DHT22;6405;59.208;18.216;2023-10-08T00:47:20;3.80;99.90
12682;DHT22;6405;59.208;18.216;2023-10-08T00:49:51;3.80;99.90
12682;DHT22;6405;59.208;18.216;2023-10-08T00:52:30;3.80;99.90
12682;DHT22;6405;59.208;18.216;2023-10-08T00:54:58;3.80;99.90
12682;DHT22;6405;59.208;18.216;2023-10-08T00:57:33;3.80;99.90
12682;DHT22;6405;59.208;18.216;2023-10-08T01:00:04;3.80;99.90
12682;DHT22;6405;59.208;18.216;2023-10-08T01:02:32;3.90;99.90
12682;DHT22;6405;59.208;18.216;2023-10-08T01:05:13;3.80;99.90
12682;DHT22;6405;59.208;18.216;2023-10-08T01:07:45;3.80;99.90
12682;DHT22;6405;59.208;18.216;2023-10-08T01:10:14;3.90;99.90
12682;DHT22;6405;59.208;18.216;2023-10-08T01:12:45;3.90;99.90
12682;DHT22;6405;59.208;18.216;2023-10-08T01:15:20;3.90;99.90
12682;DHT22;6405;59.208;18.216;2023-10-08T01:17:52;3.80;99.90
12682;DHT22;6405;59.208;18.216;2023-10-08T01:20:25;3.80;99.90
12682;DHT22;6405;59.208;18.216;2023-10-08T01:23:08;3.80;99.90
12682;DHT22;6405;59.208;18.216;2023-10-08T01:25:43;3.80;99.90
12682;DHT22;6405;59.208;18.216;2023-10-08T01:28:16;3.80;99.90
12682;DHT22;6405;59.208;18.216;2023-10-08T01:30:48;3.80;99.90
12682;DHT22;6405;59.208;18.216;2023-10-08T01:33:18;3.80;99.90
12682;DHT22;6405;59.208;18.216;2023-10-08T01:35:46;3.80;99.90
12682;DHT22;6405;59.208;18.216;2023-10-08T01:38:14;3.70;99.90
12682;DHT22;6405;59.208;18.216;2023-10-08T01:40:42;3.70;99.90
12682;DHT22;6405;59.208;18.216;2023-10-08T01:43:08;3.80;99.90
12682;DHT22;6405;59.208;18.216;2023-10-08T01:45:36;3.80;99.90
12682;DHT22;6405;59.208;18.216;2023-10-08T01:48:08;3.80;99.90
12682;DHT22;6405;59.208;18.216;2023-10-08T01:50:37;3.80;99.90
12682;DHT22;6405;59.208;18.216;2023-10-08T01:53:04;3.80;99.90
12682;DHT22;6405;59.208;18.216;2023-10-08T01:55:33;3.80;99.90
12682;DHT22;6405;59.208;18.216;2023-10-08T01:58:13;3.70;99.90
12682;DHT22;6405;59.208;18.216;2023-10-08T02:00:45;3.70;99.90
12682;DHT22;6405;59.208;18.216;2023-10-08T02:03:14;3.70;99.90
12682;DHT22;6405;59.208;18.216;2023-10-08T02:05:42;3.70;99.90
12682;DHT22;6405;59.208;18.216;2023-10-08T02:08:09;3.80;99.90
12682;DHT22;6405;59.208;18.216;2023-10-08T02:10:36;3.70;99.90
12682;DHT22;6405;59.208;18.216;2023-10-08T02:13:02;3.80;99.90
12682;DHT22;6405;59.208;18.216;2023-10-08T02:15:28;3.80;99.90
12682;DHT22;6405;59.208;18.216;2023-10-08T02:17:53;3.80;99.90
12682;DHT22;6405;59.208;18.216;2023-10-08T02:20:24;3.50;99.90
12682;DHT22;6405;59.208;18.216;2023-10-08T02:22:49;3.80;99.90
12682;DHT22;6405;59.208;18.216;2023-10-08T02:25:16;3.70;99.90
12682;DHT22;6405;59.208;18.216;2023-10-08T02:27:42;3.80;99.90
12682;DHT22;6405;59.208;18.216;2023-10-08T02:30:08;3.80;99.90
12682;DHT22;6405;59.208;18.216;2023-10-08T02:32:35;3.80;99.90
12682;DHT22;6405;59.208;18.216;2023-10-08T02:35:08;3.80;99.90
12682;DHT22;6405;59.208;18.216;2023-10-08T02:37:37;3.80;99.90
12682;DHT22;6405;59.208;18.216;2023-10-08T02:40:08;3.90;99.90
12682;DHT22;6405;59.208;18.216;2023-10-08T02:42:56;3.80;99.90
12682;DHT22;6405;59.208;18.216;2023-10-08T02:45:27;3.70;99.90
12682;DHT22;6405;59.208;18.216;2023-10-08T02:47:54;3.70;99.90
12682;DHT22;6405;59.208;18.216;2023-10-08T02:50:21;3.80;99.90
12682;DHT22;6405;59.208;18.216;2023-10-08T02:52:50;3.80;99.90
12682;DHT22;6405;59.208;18.216;2023-10-08T02:55:19;3.80;99.90
12682;DHT22;6405;59.208;18.216;2023-10-08T02:57:54;3.80;99.90
12682;DHT22;6405;59.208;18.216;2023-10-08T03:00:21;3.90;99.90
12682;DHT22;6405;59.208;18.216;2023-10-08T03:02:56;3.90;99.90
12682;DHT22;6405;59.208;18.216;2023-10-08T03:05:22;3.90;99.90
12682;DHT22;6405;59.208;18.216;2023-10-08T03:07:48;3.80;99.90
12682;DHT22;6405;59.208;18.216;2023-10-08T03:10:17;3.90;99.90
12682;DHT22;6405;59.208;18.216;2023-10-08T03:12:46;3.90;99.90
12682;DHT22;6405;59.208;18.216;2023-10-08T03:15:12;3.80;99.90
12682;DHT22;6405;59.208;18.216;2023-10-08T03:17:42;3.90;99.90
12682;DHT22;6405;59.208;18.216;2023-10-08T03:20:17;3.80;99.90
12682;DHT22;6405;59.208;18.216;2023-10-08T03:23:07;3.80;99.90
12682;DHT22;6405;59.208;18.216;2023-10-08T03:25:52;3.80;99.90
12682;DHT22;6405;59.208;18.216;2023-10-08T03:28:29;3.90;99.90
12682;DHT22;6405;59.208;18.216;2023-10-08T03:30:55;3.90;99.90
12682;DHT22;6405;59.208;18.216;2023-10-08T03:33:32;3.90;99.90
12682;DHT22;6405;59.208;18.216;2023-10-08T03:36:00;3.90;99.90
12682;DHT22;6405;59.208;18.216;2023-10-08T03:38:30;3.90;99.90
12682;DHT22;6405;59.208;18.216;2023-10-08T03:41:10;3.90;99.90
12682;DHT22;6405;59.208;18.216;2023-10-08T03:43:42;4.10;99.90
12682;DHT22;6405;59.208;18.216;2023-10-08T03:46:18;3.90;99.90
12682;DHT22;6405;59.208;18.216;2023-10-08T03:48:47;3.90;99.90
12682;DHT22;6405;59.208;18.216;2023-10-08T03:51:16;4.10;99.90
12682;DHT22;6405;59.208;18.216;2023-10-08T03:53:45;4.10;99.90
12682;DHT22;6405;59.208;18.216;2023-10-08T03:56:27;3.90;99.90
12682;DHT22;6405;59.208;18.216;2023-10-08T03:59:00;3.90;99.90
12682;DHT22;6405;59.208;18.216;2023-10-08T04:01:44;3.90;99.90
12682;DHT22;6405;59.208;18.216;2023-10-08T04:04:10;3.80;99.90
12682;DHT22;6405;59.208;18.216;2023-10-08T04:06:42;3.80;99.90
12682;DHT22;6405;59.208;18.216;2023-10-08T04:09:15;3.70;99.90
12682;DHT22;6405;59.208;18.216;2023-10-08T04:11:44;3.80;99.90
12682;DHT22;6405;59.208;18.216;2023-10-08T04:14:13;3.70;99.90
12682;DHT22;6405;59.208;18.216;2023-10-08T04:16:42;3.70;99.90
12682;DHT22;6405;59.208;18.216;2023-10-08T04:19:09;3.70;99.90
12682;DHT22;6405;59.208;18.216;2023-10-08T04:21:34;3.70;99.90
12682;DHT22;6405;59.208;18.216;2023-10-08T04:24:00;3.60;99.90
12682;DHT22;6405;59.208;18.216;2023-10-08T04:26:29;3.70;99.90
12682;DHT22;6405;59.208;18.216;2023-10-08T04:28:56;3.60;99.90
12682;DHT22;6405;59.208;18.216;2023-10-08T04:31:42;3.80;99.90
12682;DHT22;6405;59.208;18.216;2023-10-08T04:34:12;3.60;99.90
12682;DHT22;6405;59.208;18.216;2023-10-08T04:36:48;3.70;99.90
12682;DHT22;6405;59.208;18.216;2023-10-08T04:39:20;3.70;99.90
12682;DHT22;6405;59.208;18.216;2023-10-08T04:41:52;3.60;99.90
12682;DHT22;6405;59.208;18.216;2023-10-08T04:44:19;3.50;99.90
12682;DHT22;6405;59.208;18.216;2023-10-08T04:46:47;3.60;99.90
12682;DHT22;6405;59.208;18.216;2023-10-08T04:49:15;3.60;99.90
12682;DHT22;6405;59.208;18.216;2023-10-08T04:52:06;3.80;99.90
12682;DHT22;6405;59.208;18.216;2023-10-08T04:54:40;3.70;99.90
12682;DHT22;6405;59.208;18.216;2023-10-08T04:57:07;3.70;99.90
12682;DHT22;6405;59.208;18.216;2023-10-08T04:59:43;3.70;99.90
12682;DHT22;6405;59.208;18.216;2023-10-08T05:02:10;3.60;99.90
12682;DHT22;6405;59.208;18.216;2023-10-08T05:04:51;3.60;99.90
12682;DHT22;6405;59.208;18.216;2023-10-08T05:07:18;3.60;99.90
12682;DHT22;6405;59.208;18.216;2023-10-08T05:10:07;3.60;99.90
12682;DHT22;6405;59.208;18.216;2023-10-08T05:12:33;3.60;99.90
12682;DHT22;6405;59.208;18.216;2023-10-08T05:15:16;3.70;99.90
12682;DHT22;6405;59.208;18.216;2023-10-08T05:17:44;3.60;99.90
12682;DHT22;6405;59.208;18.216;2023-10-08T05:20:20;3.60;99.90
12682;DHT22;6405;59.208;18.216;2023-10-08T05:23:13;3.60;99.90
12682;DHT22;6405;59.208;18.216;2023-10-08T05:25:56;3.60;99.90
12682;DHT22;6405;59.208;18.216;2023-10-08T05:28:25;3.60;99.90
12682;DHT22;6405;59.208;18.216;2023-10-08T05:30:51;3.70;99.90
12682;DHT22;6405;59.208;18.216;2023-10-08T05:33:40;3.70;99.90
12682;DHT22;6405;59.208;18.216;2023-10-08T05:36:24;3.70;99.90
12682;DHT22;6405;59.208;18.216;2023-10-08T05:39:00;3.70;99.90
12682;DHT22;6405;59.208;18.216;2023-10-08T05:41:44;3.60;99.90
12682;DHT22;6405;59.208;18.216;2023-10-08T05:44:39;3.60;99.90
12682;DHT22;6405;59.208;18.216;2023-10-08T05:47:06;3.70;99.90
12682;DHT22;6405;59.208;18.216;2023-10-08T05:49:38;3.70;99.90
12682;DHT22;6405;59.208;18.216;2023-10-08T05:52:07;3.80;99.90
12682;DHT22;6405;59.208;18.216;2023-10-08T05:54:36;3.90;99.90
12682;DHT22;6405;59.208;18.216;2023-10-08T05:57:03;4.00;99.90
12682;DHT22;6405;59.208;18.216;2023-10-08T05:59:39;3.80;99.90
12682;DHT22;6405;59.208;18.216;2023-10-08T06:02:24;3.80;99.90
12682;DHT22;6405;59.208;18.216;2023-10-08T06:05:05;3.80;99.90
12682;DHT22;6405;59.208;18.216;2023-10-08T06:07:41;3.80;99.90
12682;DHT22;6405;59.208;18.216;2023-10-08T06:10:26;3.80;99.90
12682;DHT22;6405;59.208;18.216;2023-10-08T06:12:56;3.90;99.90
12682;DHT22;6405;59.208;18.216;2023-10-08T06:15:40;3.90;99.90
12682;DHT22;6405;59.208;18.216;2023-10-08T06:18:26;3.90;99.90
12682;DHT22;6405;59.208;18.216;2023-10-08T06:21:02;4.00;99.90
12682;DHT22;6405;59.208;18.216;2023-10-08T06:23:35;3.90;99.90
12682;DHT22;6405;59.208;18.216;2023-10-08T06:26:02;3.90;99.90
12682;DHT22;6405;59.208;18.216;2023-10-08T06:28:43;3.90;99.90
12682;DHT22;6405;59.208;18.216;2023-10-08T06:31:10;4.00;99.90
12682;DHT22;6405;59.208;18.216;2023-10-08T06:33:43;4.00;99.90
12682;DHT22;6405;59.208;18.216;2023-10-08T06:36:10;4.00;99.90
12682;DHT22;6405;59.208;18.216;2023-10-08T06:38:36;4.00;99.90
12682;DHT22;6405;59.208;18.216;2023-10-08T06:41:04;4.00;99.90
12682;DHT22;6405;59.208;18.216;2023-10-08T06:43:41;4.00;99.90
12682;DHT22;6405;59.208;18.216;2023-10-08T06:46:26;4.10;99.90
12682;DHT22;6405;59.208;18.216;2023-10-08T06:48:54;4.30;99.90
12682;DHT22;6405;59.208;18.216;2023-10-08T06:51:20;4.10;99.90
12682;DHT22;6405;59.208;18.216;2023-10-08T06:53:48;4.20;99.90
12682;DHT22;6405;59.208;18.216;2023-10-08T06:56:17;4.30;99.90
12682;DHT22;6405;59.208;18.216;2023-10-08T06:58:45;4.30;99.90
12682;DHT22;6405;59.208;18.216;2023-10-08T07:01:18;4.50;99.90
12682;DHT22;6405;59.208;18.216;2023-10-08T07:03:47;4.30;99.90
12682;DHT22;6405;59.208;18.216;2023-10-08T07:06:18;4.30;99.90
12682;DHT22;6405;59.208;18.216;2023-10-08T07:08:58;4.30;99.90
12682;DHT22;6405;59.208;18.216;2023-10-08T07:11:26;4.40;99.90
12682;DHT22;6405;59.208;18.216;2023-10-08T07:13:54;4.30;99.90
12682;DHT22;6405;59.208;18.216;2023-10-08T07:16:21;4.30;99.90
12682;DHT22;6405;59.208;18.216;2023-10-08T07:18:47;4.30;99.90
12682;DHT22;6405;59.208;18.216;2023-10-08T07:21:21;4.40;99.90
12682;DHT22;6405;59.208;18.216;2023-10-08T07:23:54;4.50;99.90
12682;DHT22;6405;59.208;18.216;2023-10-08T07:26:28;4.60;99.90
12682;DHT22;6405;59.208;18.216;2023-10-08T07:29:05;4.70;99.90
12682;DHT22;6405;59.208;18.216;2023-10-08T07:31:35;4.50;99.90
12682;DHT22;6405;59.208;18.216;2023-10-08T07:34:02;4.60;99.90
12682;DHT22;6405;59.208;18.216;2023-10-08T07:36:48;4.60;99.90
12682;DHT22;6405;59.208;18.216;2023-10-08T07:39:18;4.70;99.90
12682;DHT22;6405;59.208;18.216;2023-10-08T07:42:07;4.80;99.90
12682;DHT22;6405;59.208;18.216;2023-10-08T07:44:34;4.80;99.90
12682;DHT22;6405;59.208;18.216;2023-10-08T07:47:05;4.80;99.90
12682;DHT22;6405;59.208;18.216;2023-10-08T07:49:33;4.90;99.90
12682;DHT22;6405;59.208;18.216;2023-10-08T07:51:58;5.00;99.90
12682;DHT22;6405;59.208;18.216;2023-10-08T07:54:25;5.00;99.90
12682;DHT22;6405;59.208;18.216;2023-10-08T07:56:55;5.10;99.90
12682;DHT22;6405;59.208;18.216;2023-10-08T07:59:34;5.10;99.90
12682;DHT22;6405;59.208;18.216;2023-10-08T08:02:05;5.20;99.90
12682;DHT22;6405;59.208;18.216;2023-10-08T08:04:36;5.20;99.90
12682;DHT22;6405;59.208;18.216;2023-10-08T08:07:02;5.30;99.90
12682;DHT22;6405;59.208;18.216;2023-10-08T08:09:30;5.30;99.90
12682;DHT22;6405;59.208;18.216;2023-10-08T08:11:55;5.40;99.90
12682;DHT22;6405;59.208;18.216;2023-10-08T08:14:23;5.50;99.90
12682;DHT22;6405;59.208;18.216;2023-10-08T08:16:51;5.60;99.90
12682;DHT22;6405;59.208;18.216;2023-10-08T08:19:17;5.70;99.90
12682;DHT22;6405;59.208;18.216;2023-10-08T08:21:49;5.80;99.90
12682;DHT22;6405;59.208;18.216;2023-10-08T08:24:17;5.90;99.90
12682;DHT22;6405;59.208;18.216;2023-10-08T08:26:57;6.00;99.90
12682;DHT22;6405;59.208;18.216;2023-10-08T08:29:37;6.00;99.90
12682;DHT22;6405;59.208;18.216;2023-10-08T08:32:14;6.00;99.90
12682;DHT22;6405;59.208;18.216;2023-10-08T08:34:44;6.00;99.90
12682;DHT22;6405;59.208;18.216;2023-10-08T08:37:11;6.00;99.90
12682;DHT22;6405;59.208;18.216;2023-10-08T08:39:38;6.00;99.90
12682;DHT22;6405;59.208;18.216;2023-10-08T08:42:04;6.10;99.90
12682;DHT22;6405;59.208;18.216;2023-10-08T08:44:38;6.00;99.90
12682;DHT22;6405;59.208;18.216;2023-10-08T08:47:17;6.00;99.90
12682;DHT22;6405;59.208;18.216;2023-10-08T08:49:44;6.00;99.90
12682;DHT22;6405;59.208;18.216;2023-10-08T08:52:11;6.10;99.90
12682;DHT22;6405;59.208;18.216;2023-10-08T08:54:38;6.20;99.90
12682;DHT22;6405;59.208;18.216;2023-10-08T08:57:04;6.20;99.90
12682;DHT22;6405;59.208;18.216;2023-10-08T08:59:32;6.30;99.90
12682;DHT22;6405;59.208;18.216;2023-10-08T09:02:02;6.30;99.90
12682;DHT22;6405;59.208;18.216;2023-10-08T09:04:32;6.30;99.90
12682;DHT22;6405;59.208;18.216;2023-10-08T09:07:01;6.30;99.90
12682;DHT22;6405;59.208;18.216;2023-10-08T09:09:36;6.40;99.90
12682;DHT22;6405;59.208;18.216;2023-10-08T09:12:10;6.40;99.90
12682;DHT22;6405;59.208;18.216;2023-10-08T09:14:36;6.50;99.90
12682;DHT22;6405;59.208;18.216;2023-10-08T09:17:04;6.50;99.90
12682;DHT22;6405;59.208;18.216;2023-10-08T09:19:38;6.50;99.90
12682;DHT22;6405;59.208;18.216;2023-10-08T09:22:08;6.60;99.90
12682;DHT22;6405;59.208;18.216;2023-10-08T09:24:37;6.70;99.90
12682;DHT22;6405;59.208;18.216;2023-10-08T09:27:07;6.70;99.90
12682;DHT22;6405;59.208;18.216;2023-10-08T09:29:36;6.70;99.90
12682;DHT22;6405;59.208;18.216;2023-10-08T09:32:06;6.80;99.90
12682;DHT22;6405;59.208;18.216;2023-10-08T09:34:33;6.80;99.90
12682;DHT22;6405;59.208;18.216;2023-10-08T09:37:00;6.80;99.90
12682;DHT22;6405;59.208;18.216;2023-10-08T09:39:30;6.90;99.90
12682;DHT22;6405;59.208;18.216;2023-10-08T09:42:01;6.90;99.90
12682;DHT22;6405;59.208;18.216;2023-10-08T09:44:32;7.00;99.90
12682;DHT22;6405;59.208;18.216;2023-10-08T09:47:07;7.10;99.90
12682;DHT22;6405;59.208;18.216;2023-10-08T09:52:06;7.00;99.90
12682;DHT22;6405;59.208;18.216;2023-10-08T09:55:08;7.00;99.90
12682;DHT22;6405;59.208;18.216;2023-10-08T09:57:36;7.10;99.90
12682;DHT22;6405;59.208;18.216;2023-10-08T10:00:04;7.20;99.90
12682;DHT22;6405;59.208;18.216;2023-10-08T10:02:32;7.10;99.90
12682;DHT22;6405;59.208;18.216;2023-10-08T10:04:58;7.20;99.90
12682;DHT22;6405;59.208;18.216;2023-10-08T10:07:26;7.30;99.90
12682;DHT22;6405;59.208;18.216;2023-10-08T10:09:55;7.30;99.90
12682;DHT22;6405;59.208;18.216;2023-10-08T10:12:25;7.30;99.90
12682;DHT22;6405;59.208;18.216;2023-10-08T10:14:56;7.30;99.90
12682;DHT22;6405;59.208;18.216;2023-10-08T10:17:28;7.40;99.90
12682;DHT22;6405;59.208;18.216;2023-10-08T10:19:59;7.50;99.90
12682;DHT22;6405;59.208;18.216;2023-10-08T10:22:33;7.50;99.90
12682;DHT22;6405;59.208;18.216;2023-10-08T10:25:03;7.50;99.90
12682;DHT22;6405;59.208;18.216;2023-10-08T10:30:26;7.60;99.90
12682;DHT22;6405;59.208;18.216;2023-10-08T10:32:54;7.70;99.90
12682;DHT22;6405;59.208;18.216;2023-10-08T10:35:20;7.70;99.90
12682;DHT22;6405;59.208;18.216;2023-10-08T10:37:49;7.80;99.90
12682;DHT22;6405;59.208;18.216;2023-10-08T10:40:22;7.70;99.90
12682;DHT22;6405;59.208;18.216;2023-10-08T10:43:07;7.90;99.90
12682;DHT22;6405;59.208;18.216;2023-10-08T10:45:34;7.80;99.90
12682;DHT22;6405;59.208;18.216;2023-10-08T10:48:02;7.80;99.90
12682;DHT22;6405;59.208;18.216;2023-10-08T10:50:50;7.90;99.90
12682;DHT22;6405;59.208;18.216;2023-10-08T10:53:42;7.90;99.90
12682;DHT22;6405;59.208;18.216;2023-10-08T10:56:24;7.90;99.90
12682;DHT22;6405;59.208;18.216;2023-10-08T10:59:00;8.00;99.90
12682;DHT22;6405;59.208;18.216;2023-10-08T11:01:27;8.10;99.90
12682;DHT22;6405;59.208;18.216;2023-10-08T11:03:56;8.10;99.90
12682;DHT22;6405;59.208;18.216;2023-10-08T11:06:23;8.20;99.90
12682;DHT22;6405;59.208;18.216;2023-10-08T11:08:50;8.30;99.90
12682;DHT22;6405;59.208;18.216;2023-10-08T11:11:18;8.30;99.90
12682;DHT22;6405;59.208;18.216;2023-10-08T11:13:44;8.40;99.90
12682;DHT22;6405;59.208;18.216;2023-10-08T11:16:17;8.40;99.90
12682;DHT22;6405;59.208;18.216;2023-10-08T11:18:47;8.50;99.90
12682;DHT22;6405;59.208;18.216;2023-10-08T11:21:16;8.50;99.90
12682;DHT22;6405;59.208;18.216;2023-10-08T11:23:47;8.50;99.90
12682;DHT22;6405;59.208;18.216;2023-10-08T11:26:19;8.60;99.90
12682;DHT22;6405;59.208;18.216;2023-10-08T11:28:47;8.70;99.90
12682;DHT22;6405;59.208;18.216;2023-10-08T11:31:18;8.80;99.90
12682;DHT22;6405;59.208;18.216;2023-10-08T11:33:47;8.80;99.90
12682;DHT22;6405;59.208;18.216;2023-10-08T11:36:23;8.80;99.90
12682;DHT22;6405;59.208;18.216;2023-10-08T11:39:11;8.80;99.90
12682;DHT22;6405;59.208;18.216;2023-10-08T11:42:01;8.90;99.90
12682;DHT22;6405;59.208;18.216;2023-10-08T11:44:32;8.90;99.90
12682;DHT22;6405;59.208;18.216;2023-10-08T11:47:02;9.00;99.90
12682;DHT22;6405;59.208;18.216;2023-10-08T11:49:41;9.00;99.90
12682;DHT22;6405;59.208;18.216;2023-10-08T11:52:16;9.10;99.90
12682;DHT22;6405;59.208;18.216;2023-10-08T11:54:43;9.10;99.90
12682;DHT22;6405;59.208;18.216;2023-10-08T11:57:09;9.10;99.90
12682;DHT22;6405;59.208;18.216;2023-10-08T11:59:36;9.10;99.90
12682;DHT22;6405;59.208;18.216;2023-10-08T12:02:06;9.10;99.90
12682;DHT22;6405;59.208;18.216;2023-10-08T12:04:32;9.10;99.90
12682;DHT22;6405;59.208;18.216;2023-10-08T12:06:58;9.10;99.90
12682;DHT22;6405;59.208;18.216;2023-10-08T12:09:28;9.10;99.90
12682;DHT22;6405;59.208;18.216;2023-10-08T12:11:54;9.10;99.90
12682;DHT22;6405;59.208;18.216;2023-10-08T12:14:21;9.10;99.90
12682;DHT22;6405;59.208;18.216;2023-10-08T12:16:52;9.10;99.90
12682;DHT22;6405;59.208;18.216;2023-10-08T12:19:17;9.10;99.90
12682;DHT22;6405;59.208;18.216;2023-10-08T12:21:44;9.10;99.90
12682;DHT22;6405;59.208;18.216;2023-10-08T12:24:13;9.10;99.90
12682;DHT22;6405;59.208;18.216;2023-10-08T12:26:40;9.00;99.90
12682;DHT22;6405;59.208;18.216;2023-10-08T12:29:12;9.00;99.90
12682;DHT22;6405;59.208;18.216;2023-10-08T12:31:40;9.20;99.90
12682;DHT22;6405;59.208;18.216;2023-10-08T12:34:05;9.30;99.90
12682;DHT22;6405;59.208;18.216;2023-10-08T12:36:31;9.30;99.90
12682;DHT22;6405;59.208;18.216;2023-10-08T12:39:01;9.30;99.90
12682;DHT22;6405;59.208;18.216;2023-10-08T12:41:34;9.30;99.90
12682;DHT22;6405;59.208;18.216;2023-10-08T12:44:04;9.40;99.90
12682;DHT22;6405;59.208;18.216;2023-10-08T12:46:33;9.30;99.90
12682;DHT22;6405;59.208;18.216;2023-10-08T12:48:59;9.30;99.90
12682;DHT22;6405;59.208;18.216;2023-10-08T12:51:27;9.30;99.90
12682;DHT22;6405;59.208;18.216;2023-10-08T12:53:59;9.40;99.90
12682;DHT22;6405;59.208;18.216;2023-10-08T12:56:30;9.30;99.90
12682;DHT22;6405;59.208;18.216;2023-10-08T12:59:03;9.30;99.90
12682;DHT22;6405;59.208;18.216;2023-10-08T13:01:34;9.20;99.90
12682;DHT22;6405;59.208;18.216;2023-10-08T13:04:02;9.30;99.90
12682;DHT22;6405;59.208;18.216;2023-10-08T13:06:33;9.30;99.90
12682;DHT22;6405;59.208;18.216;2023-10-08T13:09:03;9.30;99.90
12682;DHT22;6405;59.208;18.216;2023-10-08T13:11:35;9.30;99.90
12682;DHT22;6405;59.208;18.216;2023-10-08T13:14:00;9.40;99.90
12682;DHT22;6405;59.208;18.216;2023-10-08T13:16:27;9.50;99.90
12682;DHT22;6405;59.208;18.216;2023-10-08T13:18:57;9.40;99.90
12682;DHT22;6405;59.208;18.216;2023-10-08T13:21:25;9.30;99.90
12682;DHT22;6405;59.208;18.216;2023-10-08T13:23:54;9.20;99.90
12682;DHT22;6405;59.208;18.216;2023-10-08T13:26:23;9.20;99.90
12682;DHT22;6405;59.208;18.216;2023-10-08T13:28:50;9.30;99.90
12682;DHT22;6405;59.208;18.216;2023-10-08T13:31:16;9.40;99.90
12682;DHT22;6405;59.208;18.216;2023-10-08T13:33:43;9.50;99.90
12682;DHT22;6405;59.208;18.216;2023-10-08T13:36:13;9.40;99.90
12682;DHT22;6405;59.208;18.216;2023-10-08T13:38:40;9.50;99.90
12682;DHT22;6405;59.208;18.216;2023-10-08T13:41:10;9.50;99.90
12682;DHT22;6405;59.208;18.216;2023-10-08T13:43:47;9.30;99.90
12682;DHT22;6405;59.208;18.216;2023-10-08T13:46:17;9.30;99.90
12682;DHT22;6405;59.208;18.216;2023-10-08T13:48:45;9.20;99.90
12682;DHT22;6405;59.208;18.216;2023-10-08T13:51:14;9.00;99.90
12682;DHT22;6405;59.208;18.216;2023-10-08T13:53:48;8.90;99.90
12682;DHT22;6405;59.208;18.216;2023-10-08T13:56:19;8.90;99.90
12682;DHT22;6405;59.208;18.216;2023-10-08T13:58:49;8.90;99.90
12682;DHT22;6405;59.208;18.216;2023-10-08T14:01:17;8.90;99.90
12682;DHT22;6405;59.208;18.216;2023-10-08T14:03:49;8.80;99.90
12682;DHT22;6405;59.208;18.216;2023-10-08T14:06:19;8.80;99.90
12682;DHT22;6405;59.208;18.216;2023-10-08T14:08:46;8.70;99.90
12682;DHT22;6405;59.208;18.216;2023-10-08T14:11:20;8.70;99.90
12682;DHT22;6405;59.208;18.216;2023-10-08T14:13:50;8.70;99.90
12682;DHT22;6405;59.208;18.216;2023-10-08T14:16:16;8.80;99.90
12682;DHT22;6405;59.208;18.216;2023-10-08T14:18:44;8.70;99.90
12682;DHT22;6405;59.208;18.216;2023-10-08T14:21:16;8.70;99.90
12682;DHT22;6405;59.208;18.216;2023-10-08T14:23:43;8.60;99.90
12682;DHT22;6405;59.208;18.216;2023-10-08T14:26:10;8.70;99.90
12682;DHT22;6405;59.208;18.216;2023-10-08T14:28:36;8.60;99.90
12682;DHT22;6405;59.208;18.216;2023-10-08T14:31:24;8.50;99.90
12682;DHT22;6405;59.208;18.216;2023-10-08T14:33:52;8.50;99.90
12682;DHT22;6405;59.208;18.216;2023-10-08T14:36:24;8.50;99.90
12682;DHT22;6405;59.208;18.216;2023-10-08T14:39:10;8.40;99.90
12682;DHT22;6405;59.208;18.216;2023-10-08T14:41:54;8.40;99.90
12682;DHT22;6405;59.208;18.216;2023-10-08T14:44:39;8.40;99.90
12682;DHT22;6405;59.208;18.216;2023-10-08T14:47:05;8.30;99.90
12682;DHT22;6405;59.208;18.216;2023-10-08T14:49:31;8.30;99.90
12682;DHT22;6405;59.208;18.216;2023-10-08T14:51:58;8.40;99.90
12682;DHT22;6405;59.208;18.216;2023-10-08T14:54:24;8.40;99.90
12682;DHT22;6405;59.208;18.216;2023-10-08T14:56:50;8.30;99.90
12682;DHT22;6405;59.208;18.216;2023-10-08T14:59:17;8.30;99.90
12682;DHT22;6405;59.208;18.216;2023-10-08T15:01:44;8.20;99.90
12682;DHT22;6405;59.208;18.216;2023-10-08T15:04:10;8.10;99.90
12682;DHT22;6405;59.208;18.216;2023-10-08T15:06:37;8.10;99.90
12682;DHT22;6405;59.208;18.216;2023-10-08T15:09:05;8.10;99.90
12682;DHT22;6405;59.208;18.216;2023-10-08T15:11:33;8.00;99.90
12682;DHT22;6405;59.208;18.216;2023-10-08T15:14:04;7.90;99.90
12682;DHT22;6405;59.208;18.216;2023-10-08T15:16:38;7.90;99.90
12682;DHT22;6405;59.208;18.216;2023-10-08T15:19:04;7.80;99.90
12682;DHT22;6405;59.208;18.216;2023-10-08T15:21:31;7.70;99.90
12682;DHT22;6405;59.208;18.216;2023-10-08T15:23:59;7.70;99.90
12682;DHT22;6405;59.208;18.216;2023-10-08T15:26:34;7.60;99.90
12682;DHT22;6405;59.208;18.216;2023-10-08T15:28:59;7.60;99.90
12682;DHT22;6405;59.208;18.216;2023-10-08T15:31:28;7.50;99.90
12682;DHT22;6405;59.208;18.216;2023-10-08T15:33:54;7.50;99.90
12682;DHT22;6405;59.208;18.216;2023-10-08T15:36:20;7.50;99.90
12682;DHT22;6405;59.208;18.216;2023-10-08T15:38:45;7.40;99.90
12682;DHT22;6405;59.208;18.216;2023-10-08T15:41:12;7.30;99.90
12682;DHT22;6405;59.208;18.216;2023-10-08T15:43:39;7.30;99.90
12682;DHT22;6405;59.208;18.216;2023-10-08T15:46:05;7.20;99.90
12682;DHT22;6405;59.208;18.216;2023-10-08T15:48:31;7.10;99.90
12682;DHT22;6405;59.208;18.216;2023-10-08T15:51:01;7.10;99.90
12682;DHT22;6405;59.208;18.216;2023-10-08T15:53:27;7.00;99.90
12682;DHT22;6405;59.208;18.216;2023-10-08T15:55:53;6.90;99.90
12682;DHT22;6405;59.208;18.216;2023-10-08T15:58:19;6.80;99.90
12682;DHT22;6405;59.208;18.216;2023-10-08T16:00:44;6.80;99.90
12682;DHT22;6405;59.208;18.216;2023-10-08T16:03:10;6.70;99.90
12682;DHT22;6405;59.208;18.216;2023-10-08T16:05:37;6.60;99.90
12682;DHT22;6405;59.208;18.216;2023-10-08T16:08:03;6.40;99.90
12682;DHT22;6405;59.208;18.216;2023-10-08T16:10:29;6.30;99.90
12682;DHT22;6405;59.208;18.216;2023-10-08T16:12:54;6.20;99.90